ENML/MOL METAR and TAF weather

Enter ICAO airport designator
Station Type Date Time Source
ENML METAR 2019/10/21 23:20 UTC NOAA

ENML 212320Z AUTO 24018KT 9999NDV BKN048/// OVC058/// 10/04 Q1001


Station Type Date Time Source
ENML Decoded METAR 2019/10/21 23:20 UTC NOAA

Molde / Aro, Norway (ENML) 62-45N 007-16E 3M
Oct 21, 2019 - 07:20 PM EDT / 2019.10.21 2320 UTC
Wind: from the WSW (240 degrees) at 21 MPH (18 KT):0
Sky conditions: overcast
Temperature: 50 F (10 C)
Dew Point: 39 F (4 C)
Relative Humidity: 66%
Pressure (altimeter): 29.56 in. Hg (1001 hPa)
ob: ENML 212320Z AUTO 24018KT 9999NDV BKN048/// OVC058/// 10/04 Q1001
cycle: 23

Station Type Date Time Source
ENML TAF UTC NOAA

Error!

Example: see airport list